Westhampton, New York
Current Conditions -  °F | °C
As of 10:53 PM on Saturday 25 Oct 2014 (Local Time) from KFOK Reporting Station
Clear Clear  
Wind Chill: 61°   Ceiling: Unl
Heat Index: 61°   Visibility: 10mi
Dew Point: 49°   Wind: 14mph
Humidity: 64%   Direction: 250°WSW
Pressure: 29.6"   Gusts: NA
Location:  40.84°N, 72.66°W
Report Text: KFOK 260253Z 25012KT 10SM CLR 16/09 A2960 RMK AO2 SLP022 T01610094 58016
Loading
Personal Weather Stations






























Interactive Weather Map
Tropical Storm Tracking
New forecast layout! Learn more

10-Day Weather Forecast

Advertisements
Track Severe Weather on mobile